sensor_id;sensor_type;location;lat;lon;timestamp;temperature;humidity
3360;DHT22;1693;49.602;11.046;2023-03-20T00:00:48;7.90;99.90
3360;DHT22;1693;49.602;11.046;2023-03-20T00:03:15;7.90;99.90
3360;DHT22;1693;49.602;11.046;2023-03-20T00:05:44;7.90;99.90
3360;DHT22;1693;49.602;11.046;2023-03-20T00:08:11;7.80;99.90
3360;DHT22;1693;49.602;11.046;2023-03-20T00:10:41;7.80;99.90
3360;DHT22;1693;49.602;11.046;2023-03-20T00:13:13;7.80;99.90
3360;DHT22;1693;49.602;11.046;2023-03-20T00:15:43;7.80;99.90
3360;DHT22;1693;49.602;11.046;2023-03-20T00:18:17;7.80;99.90
3360;DHT22;1693;49.602;11.046;2023-03-20T00:20:45;7.80;99.90
3360;DHT22;1693;49.602;11.046;2023-03-20T00:23:12;7.90;99.90
3360;DHT22;1693;49.602;11.046;2023-03-20T00:25:40;7.90;99.90
3360;DHT22;1693;49.602;11.046;2023-03-20T00:28:31;7.90;99.90
3360;DHT22;1693;49.602;11.046;2023-03-20T00:31:02;7.90;99.90
3360;DHT22;1693;49.602;11.046;2023-03-20T00:33:31;7.80;99.90
3360;DHT22;1693;49.602;11.046;2023-03-20T00:35:58;7.80;99.90
3360;DHT22;1693;49.602;11.046;2023-03-20T00:38:25;7.80;99.90
3360;DHT22;1693;49.602;11.046;2023-03-20T00:40:52;7.80;99.90
3360;DHT22;1693;49.602;11.046;2023-03-20T00:43:19;7.80;99.90
3360;DHT22;1693;49.602;11.046;2023-03-20T00:45:47;7.80;99.90
3360;DHT22;1693;49.602;11.046;2023-03-20T00:48:14;7.70;99.90
3360;DHT22;1693;49.602;11.046;2023-03-20T00:50:44;7.80;99.90
3360;DHT22;1693;49.602;11.046;2023-03-20T00:53:11;7.80;99.90
3360;DHT22;1693;49.602;11.046;2023-03-20T00:55:39;7.80;99.90
3360;DHT22;1693;49.602;11.046;2023-03-20T00:58:06;7.80;99.90
3360;DHT22;1693;49.602;11.046;2023-03-20T01:00:37;7.70;99.90
3360;DHT22;1693;49.602;11.046;2023-03-20T01:03:14;7.80;99.90
3360;DHT22;1693;49.602;11.046;2023-03-20T01:05:44;7.80;99.90
3360;DHT22;1693;49.602;11.046;2023-03-20T01:08:12;7.80;99.90
3360;DHT22;1693;49.602;11.046;2023-03-20T01:10:41;7.80;99.90
3360;DHT22;1693;49.602;11.046;2023-03-20T01:13:17;7.70;99.90
3360;DHT22;1693;49.602;11.046;2023-03-20T01:15:45;7.70;99.90
3360;DHT22;1693;49.602;11.046;2023-03-20T01:18:14;7.70;99.90
3360;DHT22;1693;49.602;11.046;2023-03-20T01:20:42;7.70;99.90
3360;DHT22;1693;49.602;11.046;2023-03-20T01:23:11;7.80;99.90
3360;DHT22;1693;49.602;11.046;2023-03-20T01:25:38;7.70;99.90
3360;DHT22;1693;49.602;11.046;2023-03-20T01:28:13;7.80;99.90
3360;DHT22;1693;49.602;11.046;2023-03-20T01:30:42;7.80;99.90
3360;DHT22;1693;49.602;11.046;2023-03-20T01:33:13;7.80;99.90
3360;DHT22;1693;49.602;11.046;2023-03-20T01:35:42;7.70;99.90
3360;DHT22;1693;49.602;11.046;2023-03-20T01:38:16;7.70;99.90
3360;DHT22;1693;49.602;11.046;2023-03-20T01:40:50;7.70;99.90
3360;DHT22;1693;49.602;11.046;2023-03-20T01:43:20;7.70;99.90
3360;DHT22;1693;49.602;11.046;2023-03-20T01:45:53;7.70;99.90
3360;DHT22;1693;49.602;11.046;2023-03-20T01:48:25;7.70;99.90
3360;DHT22;1693;49.602;11.046;2023-03-20T01:50:59;7.70;99.90
3360;DHT22;1693;49.602;11.046;2023-03-20T01:53:28;7.80;99.90
3360;DHT22;1693;49.602;11.046;2023-03-20T01:55:58;7.80;99.90
3360;DHT22;1693;49.602;11.046;2023-03-20T01:58:30;7.80;99.90
3360;DHT22;1693;49.602;11.046;2023-03-20T02:00:58;7.80;99.90
3360;DHT22;1693;49.602;11.046;2023-03-20T02:03:26;7.80;99.90
3360;DHT22;1693;49.602;11.046;2023-03-20T02:05:54;7.80;99.90
3360;DHT22;1693;49.602;11.046;2023-03-20T02:08:26;7.80;99.90
3360;DHT22;1693;49.602;11.046;2023-03-20T02:10:55;7.80;99.90
3360;DHT22;1693;49.602;11.046;2023-03-20T02:13:24;7.80;99.90
3360;DHT22;1693;49.602;11.046;2023-03-20T02:15:55;7.80;99.90
3360;DHT22;1693;49.602;11.046;2023-03-20T02:18:22;7.80;99.90
3360;DHT22;1693;49.602;11.046;2023-03-20T02:21:10;7.90;99.90
3360;DHT22;1693;49.602;11.046;2023-03-20T02:27:05;7.80;99.90
3360;DHT22;1693;49.602;11.046;2023-03-20T02:29:56;7.80;99.90
3360;DHT22;1693;49.602;11.046;2023-03-20T02:32:48;7.90;99.90
3360;DHT22;1693;49.602;11.046;2023-03-20T02:41:12;7.80;99.90
3360;DHT22;1693;49.602;11.046;2023-03-20T02:43:50;7.80;99.90
3360;DHT22;1693;49.602;11.046;2023-03-20T02:46:29;7.80;99.90
3360;DHT22;1693;49.602;11.046;2023-03-20T02:49:00;7.80;99.90
3360;DHT22;1693;49.602;11.046;2023-03-20T02:51:34;7.80;99.90
3360;DHT22;1693;49.602;11.046;2023-03-20T02:54:06;7.80;99.90
3360;DHT22;1693;49.602;11.046;2023-03-20T02:56:44;7.70;99.90
3360;DHT22;1693;49.602;11.046;2023-03-20T02:59:22;7.70;99.90
3360;DHT22;1693;49.602;11.046;2023-03-20T03:01:55;7.70;99.90
3360;DHT22;1693;49.602;11.046;2023-03-20T03:04:31;7.70;99.90
3360;DHT22;1693;49.602;11.046;2023-03-20T03:07:01;7.70;99.90
3360;DHT22;1693;49.602;11.046;2023-03-20T03:09:35;7.70;99.90
3360;DHT22;1693;49.602;11.046;2023-03-20T03:12:09;7.70;99.90
3360;DHT22;1693;49.602;11.046;2023-03-20T03:14:40;7.80;99.90
3360;DHT22;1693;49.602;11.046;2023-03-20T03:17:09;7.70;99.90
3360;DHT22;1693;49.602;11.046;2023-03-20T03:19:40;7.70;99.90
3360;DHT22;1693;49.602;11.046;2023-03-20T03:22:08;7.70;99.90
3360;DHT22;1693;49.602;11.046;2023-03-20T03:24:42;7.70;99.90
3360;DHT22;1693;49.602;11.046;2023-03-20T03:27:15;7.70;99.90
3360;DHT22;1693;49.602;11.046;2023-03-20T03:29:46;7.70;99.90
3360;DHT22;1693;49.602;11.046;2023-03-20T03:32:22;7.70;99.90
3360;DHT22;1693;49.602;11.046;2023-03-20T03:34:51;7.60;99.90
3360;DHT22;1693;49.602;11.046;2023-03-20T03:37:25;7.60;99.90
3360;DHT22;1693;49.602;11.046;2023-03-20T03:39:59;7.60;99.90
3360;DHT22;1693;49.602;11.046;2023-03-20T03:42:31;7.60;99.90
3360;DHT22;1693;49.602;11.046;2023-03-20T03:45:05;7.60;99.90
3360;DHT22;1693;49.602;11.046;2023-03-20T03:47:38;7.50;99.90
3360;DHT22;1693;49.602;11.046;2023-03-20T03:50:11;7.50;99.90
3360;DHT22;1693;49.602;11.046;2023-03-20T03:52:41;7.50;99.90
3360;DHT22;1693;49.602;11.046;2023-03-20T03:55:13;7.50;99.90
3360;DHT22;1693;49.602;11.046;2023-03-20T03:57:43;7.40;99.90
3360;DHT22;1693;49.602;11.046;2023-03-20T04:00:16;7.40;99.90
3360;DHT22;1693;49.602;11.046;2023-03-20T04:02:55;7.30;99.90
3360;DHT22;1693;49.602;11.046;2023-03-20T04:05:24;7.30;99.90
3360;DHT22;1693;49.602;11.046;2023-03-20T04:07:55;7.20;99.90
3360;DHT22;1693;49.602;11.046;2023-03-20T04:10:25;7.20;99.90
3360;DHT22;1693;49.602;11.046;2023-03-20T04:12:52;7.10;99.90
3360;DHT22;1693;49.602;11.046;2023-03-20T04:15:19;7.10;99.90
3360;DHT22;1693;49.602;11.046;2023-03-20T04:17:46;7.10;99.90
3360;DHT22;1693;49.602;11.046;2023-03-20T04:20:14;7.00;99.90
3360;DHT22;1693;49.602;11.046;2023-03-20T04:22:42;7.00;99.90
3360;DHT22;1693;49.602;11.046;2023-03-20T04:25:14;6.90;99.90
3360;DHT22;1693;49.602;11.046;2023-03-20T04:27:43;6.90;99.90
3360;DHT22;1693;49.602;11.046;2023-03-20T04:30:11;6.80;99.90
3360;DHT22;1693;49.602;11.046;2023-03-20T04:32:38;6.80;99.90
3360;DHT22;1693;49.602;11.046;2023-03-20T04:35:06;6.80;99.90
3360;DHT22;1693;49.602;11.046;2023-03-20T04:37:33;6.80;99.90
3360;DHT22;1693;49.602;11.046;2023-03-20T04:40:00;6.80;99.90
3360;DHT22;1693;49.602;11.046;2023-03-20T04:42:27;6.70;99.90
3360;DHT22;1693;49.602;11.046;2023-03-20T04:44:56;6.60;99.90
3360;DHT22;1693;49.602;11.046;2023-03-20T04:47:22;6.60;99.90
3360;DHT22;1693;49.602;11.046;2023-03-20T04:49:49;6.70;99.90
3360;DHT22;1693;49.602;11.046;2023-03-20T04:52:18;6.70;99.90
3360;DHT22;1693;49.602;11.046;2023-03-20T04:54:44;6.60;99.90
3360;DHT22;1693;49.602;11.046;2023-03-20T04:57:13;6.70;99.90
3360;DHT22;1693;49.602;11.046;2023-03-20T04:59:40;6.70;99.90
3360;DHT22;1693;49.602;11.046;2023-03-20T05:02:09;6.70;99.90
3360;DHT22;1693;49.602;11.046;2023-03-20T05:04:40;6.60;99.90
3360;DHT22;1693;49.602;11.046;2023-03-20T05:07:07;6.70;99.90
3360;DHT22;1693;49.602;11.046;2023-03-20T05:09:34;6.60;99.90
3360;DHT22;1693;49.602;11.046;2023-03-20T05:12:01;6.60;99.90
3360;DHT22;1693;49.602;11.046;2023-03-20T05:14:28;6.50;99.90
3360;DHT22;1693;49.602;11.046;2023-03-20T05:16:55;6.50;99.90
3360;DHT22;1693;49.602;11.046;2023-03-20T05:19:24;6.60;99.90
3360;DHT22;1693;49.602;11.046;2023-03-20T05:21:52;6.60;99.90
3360;DHT22;1693;49.602;11.046;2023-03-20T05:24:20;6.60;99.90
3360;DHT22;1693;49.602;11.046;2023-03-20T05:26:47;6.70;99.90
3360;DHT22;1693;49.602;11.046;2023-03-20T05:29:16;6.70;99.90
3360;DHT22;1693;49.602;11.046;2023-03-20T05:31:43;6.60;99.90
3360;DHT22;1693;49.602;11.046;2023-03-20T05:34:11;6.70;99.90
3360;DHT22;1693;49.602;11.046;2023-03-20T05:36:39;6.70;99.90
3360;DHT22;1693;49.602;11.046;2023-03-20T05:39:08;6.70;99.90
3360;DHT22;1693;49.602;11.046;2023-03-20T05:41:36;6.80;99.90
3360;DHT22;1693;49.602;11.046;2023-03-20T05:44:05;6.80;99.90
3360;DHT22;1693;49.602;11.046;2023-03-20T05:46:33;6.80;99.90
3360;DHT22;1693;49.602;11.046;2023-03-20T05:49:01;6.80;99.90
3360;DHT22;1693;49.602;11.046;2023-03-20T05:51:28;6.90;99.90
3360;DHT22;1693;49.602;11.046;2023-03-20T05:53:57;6.90;99.90
3360;DHT22;1693;49.602;11.046;2023-03-20T05:56:24;6.90;99.90
3360;DHT22;1693;49.602;11.046;2023-03-20T05:58:52;7.00;99.90
3360;DHT22;1693;49.602;11.046;2023-03-20T06:01:21;7.00;99.90
3360;DHT22;1693;49.602;11.046;2023-03-20T06:03:49;7.00;99.90
3360;DHT22;1693;49.602;11.046;2023-03-20T06:06:17;7.00;99.90
3360;DHT22;1693;49.602;11.046;2023-03-20T06:08:46;7.10;99.90
3360;DHT22;1693;49.602;11.046;2023-03-20T06:11:14;7.10;99.90
3360;DHT22;1693;49.602;11.046;2023-03-20T06:13:42;7.20;99.90
3360;DHT22;1693;49.602;11.046;2023-03-20T06:16:11;7.20;99.90
3360;DHT22;1693;49.602;11.046;2023-03-20T06:18:38;7.30;99.90
3360;DHT22;1693;49.602;11.046;2023-03-20T06:21:05;7.30;99.90
3360;DHT22;1693;49.602;11.046;2023-03-20T06:23:32;7.30;99.90
3360;DHT22;1693;49.602;11.046;2023-03-20T06:25:59;7.40;99.90
3360;DHT22;1693;49.602;11.046;2023-03-20T06:28:27;7.40;99.90
3360;DHT22;1693;49.602;11.046;2023-03-20T06:30:55;7.40;99.90
3360;DHT22;1693;49.602;11.046;2023-03-20T06:33:22;7.50;99.90
3360;DHT22;1693;49.602;11.046;2023-03-20T06:35:49;7.50;99.90
3360;DHT22;1693;49.602;11.046;2023-03-20T06:38:16;7.50;99.90
3360;DHT22;1693;49.602;11.046;2023-03-20T06:40:43;7.50;99.90
3360;DHT22;1693;49.602;11.046;2023-03-20T06:43:10;7.60;99.90
3360;DHT22;1693;49.602;11.046;2023-03-20T06:45:39;7.70;99.90
3360;DHT22;1693;49.602;11.046;2023-03-20T06:48:07;7.80;99.90
3360;DHT22;1693;49.602;11.046;2023-03-20T06:50:34;7.80;99.90
3360;DHT22;1693;49.602;11.046;2023-03-20T06:53:01;7.90;99.90
3360;DHT22;1693;49.602;11.046;2023-03-20T06:55:29;7.90;99.90
3360;DHT22;1693;49.602;11.046;2023-03-20T06:57:56;7.90;99.90
3360;DHT22;1693;49.602;11.046;2023-03-20T07:00:23;8.00;99.90
3360;DHT22;1693;49.602;11.046;2023-03-20T07:02:52;8.00;99.90
3360;DHT22;1693;49.602;11.046;2023-03-20T07:05:19;8.10;99.90
3360;DHT22;1693;49.602;11.046;2023-03-20T07:07:46;8.10;99.90
3360;DHT22;1693;49.602;11.046;2023-03-20T07:10:13;8.10;99.90
3360;DHT22;1693;49.602;11.046;2023-03-20T07:12:40;8.10;99.90
3360;DHT22;1693;49.602;11.046;2023-03-20T07:15:09;8.10;99.90
3360;DHT22;1693;49.602;11.046;2023-03-20T07:17:37;8.10;99.90
3360;DHT22;1693;49.602;11.046;2023-03-20T07:20:07;8.20;99.90
3360;DHT22;1693;49.602;11.046;2023-03-20T07:22:35;8.20;99.90
3360;DHT22;1693;49.602;11.046;2023-03-20T07:25:03;8.30;99.90
3360;DHT22;1693;49.602;11.046;2023-03-20T16:25:11;12.30;99.90
3360;DHT22;1693;49.602;11.046;2023-03-20T16:27:41;12.10;99.90
3360;DHT22;1693;49.602;11.046;2023-03-20T17:12:50;11.50;99.90
3360;DHT22;1693;49.602;11.046;2023-03-20T17:40:05;11.10;99.90
3360;DHT22;1693;49.602;11.046;2023-03-20T17:42:32;10.80;99.90
3360;DHT22;1693;49.602;11.046;2023-03-20T17:45:00;10.50;99.90
3360;DHT22;1693;49.602;11.046;2023-03-20T17:47:31;10.50;99.90
3360;DHT22;1693;49.602;11.046;2023-03-20T17:49:59;10.50;99.90
3360;DHT22;1693;49.602;11.046;2023-03-20T17:52:27;10.30;99.90
3360;DHT22;1693;49.602;11.046;2023-03-20T17:54:54;10.40;99.90
3360;DHT22;1693;49.602;11.046;2023-03-20T17:57:25;10.40;99.90
3360;DHT22;1693;49.602;11.046;2023-03-20T17:59:52;10.30;99.90
3360;DHT22;1693;49.602;11.046;2023-03-20T18:02:19;10.20;99.90
3360;DHT22;1693;49.602;11.046;2023-03-20T18:04:48;10.20;99.90
3360;DHT22;1693;49.602;11.046;2023-03-20T18:07:16;10.10;99.90
3360;DHT22;1693;49.602;11.046;2023-03-20T18:09:45;10.10;99.90
3360;DHT22;1693;49.602;11.046;2023-03-20T18:12:15;10.20;99.90
3360;DHT22;1693;49.602;11.046;2023-03-20T18:14:43;10.20;99.90
3360;DHT22;1693;49.602;11.046;2023-03-20T18:17:12;10.10;99.90
3360;DHT22;1693;49.602;11.046;2023-03-20T18:19:40;9.90;99.90
3360;DHT22;1693;49.602;11.046;2023-03-20T18:22:10;9.70;99.90
3360;DHT22;1693;49.602;11.046;2023-03-20T18:24:38;9.70;99.90
3360;DHT22;1693;49.602;11.046;2023-03-20T18:27:07;9.60;99.90
3360;DHT22;1693;49.602;11.046;2023-03-20T18:29:34;9.40;99.90
3360;DHT22;1693;49.602;11.046;2023-03-20T18:32:02;9.40;99.90
3360;DHT22;1693;49.602;11.046;2023-03-20T18:34:31;9.30;99.90
3360;DHT22;1693;49.602;11.046;2023-03-20T18:36:58;9.20;99.90
3360;DHT22;1693;49.602;11.046;2023-03-20T18:39:28;9.10;99.90
3360;DHT22;1693;49.602;11.046;2023-03-20T18:41:55;9.00;99.90
3360;DHT22;1693;49.602;11.046;2023-03-20T18:44:25;9.10;99.90
3360;DHT22;1693;49.602;11.046;2023-03-20T18:46:53;9.00;99.90
3360;DHT22;1693;49.602;11.046;2023-03-20T18:49:22;8.90;99.90
3360;DHT22;1693;49.602;11.046;2023-03-20T18:51:49;8.80;99.90
3360;DHT22;1693;49.602;11.046;2023-03-20T18:54:20;8.70;99.90
3360;DHT22;1693;49.602;11.046;2023-03-20T18:56:53;8.80;99.90
3360;DHT22;1693;49.602;11.046;2023-03-20T18:59:25;8.80;99.90
3360;DHT22;1693;49.602;11.046;2023-03-20T19:01:54;8.80;99.90
3360;DHT22;1693;49.602;11.046;2023-03-20T19:04:21;8.80;99.90
3360;DHT22;1693;49.602;11.046;2023-03-20T19:06:48;8.90;99.90
3360;DHT22;1693;49.602;11.046;2023-03-20T19:09:15;8.90;99.90
3360;DHT22;1693;49.602;11.046;2023-03-20T19:11:42;9.00;99.90
3360;DHT22;1693;49.602;11.046;2023-03-20T19:14:11;8.90;99.90
3360;DHT22;1693;49.602;11.046;2023-03-20T19:16:39;8.90;99.90
3360;DHT22;1693;49.602;11.046;2023-03-20T19:19:07;9.00;99.90
3360;DHT22;1693;49.602;11.046;2023-03-20T19:21:34;8.90;99.90
3360;DHT22;1693;49.602;11.046;2023-03-20T19:24:03;8.90;99.90
3360;DHT22;1693;49.602;11.046;2023-03-20T19:26:32;8.90;99.90
3360;DHT22;1693;49.602;11.046;2023-03-20T19:29:00;8.90;99.90
3360;DHT22;1693;49.602;11.046;2023-03-20T19:31:29;8.80;99.90
3360;DHT22;1693;49.602;11.046;2023-03-20T19:33:56;8.80;99.90
3360;DHT22;1693;49.602;11.046;2023-03-20T19:36:25;8.90;99.90
3360;DHT22;1693;49.602;11.046;2023-03-20T19:38:53;8.90;99.90
3360;DHT22;1693;49.602;11.046;2023-03-20T19:41:20;8.80;99.90
3360;DHT22;1693;49.602;11.046;2023-03-20T19:43:47;8.80;99.90
3360;DHT22;1693;49.602;11.046;2023-03-20T19:46:15;8.70;99.90
3360;DHT22;1693;49.602;11.046;2023-03-20T19:48:44;8.70;99.90
3360;DHT22;1693;49.602;11.046;2023-03-20T19:51:14;8.80;99.90
3360;DHT22;1693;49.602;11.046;2023-03-20T19:53:42;8.80;99.90
3360;DHT22;1693;49.602;11.046;2023-03-20T19:56:09;8.70;99.90
3360;DHT22;1693;49.602;11.046;2023-03-20T19:58:37;8.80;99.90
3360;DHT22;1693;49.602;11.046;2023-03-20T20:01:04;8.90;99.90
3360;DHT22;1693;49.602;11.046;2023-03-20T20:03:34;8.90;99.90
3360;DHT22;1693;49.602;11.046;2023-03-20T20:06:07;8.90;99.90
3360;DHT22;1693;49.602;11.046;2023-03-20T20:08:38;8.90;99.90
3360;DHT22;1693;49.602;11.046;2023-03-20T20:11:05;8.80;99.90
3360;DHT22;1693;49.602;11.046;2023-03-20T20:13:34;8.60;99.90
3360;DHT22;1693;49.602;11.046;2023-03-20T20:16:03;8.50;99.90
3360;DHT22;1693;49.602;11.046;2023-03-20T20:18:34;8.40;99.90
3360;DHT22;1693;49.602;11.046;2023-03-20T20:21:07;8.40;99.90
3360;DHT22;1693;49.602;11.046;2023-03-20T20:23:38;8.30;99.90
3360;DHT22;1693;49.602;11.046;2023-03-20T20:26:07;8.20;99.90
3360;DHT22;1693;49.602;11.046;2023-03-20T20:28:37;8.30;99.90
3360;DHT22;1693;49.602;11.046;2023-03-20T20:31:06;8.20;99.90
3360;DHT22;1693;49.602;11.046;2023-03-20T20:33:42;8.30;99.90
3360;DHT22;1693;49.602;11.046;2023-03-20T20:36:13;8.20;99.90
3360;DHT22;1693;49.602;11.046;2023-03-20T20:38:42;8.20;99.90
3360;DHT22;1693;49.602;11.046;2023-03-20T20:41:12;8.20;99.90
3360;DHT22;1693;49.602;11.046;2023-03-20T20:43:43;8.30;99.90
3360;DHT22;1693;49.602;11.046;2023-03-20T20:46:10;8.30;99.90
3360;DHT22;1693;49.602;11.046;2023-03-20T20:48:40;8.40;99.90
3360;DHT22;1693;49.602;11.046;2023-03-20T20:51:09;8.30;99.90
3360;DHT22;1693;49.602;11.046;2023-03-20T20:53:39;8.20;99.90
3360;DHT22;1693;49.602;11.046;2023-03-20T20:56:07;8.20;99.90
3360;DHT22;1693;49.602;11.046;2023-03-20T20:58:34;8.30;99.90
3360;DHT22;1693;49.602;11.046;2023-03-20T21:01:01;8.20;99.90
3360;DHT22;1693;49.602;11.046;2023-03-20T21:03:30;8.20;99.90
3360;DHT22;1693;49.602;11.046;2023-03-20T21:06:02;8.30;99.90
3360;DHT22;1693;49.602;11.046;2023-03-20T21:08:31;8.20;99.90
3360;DHT22;1693;49.602;11.046;2023-03-20T21:11:01;8.20;99.90
3360;DHT22;1693;49.602;11.046;2023-03-20T21:13:28;8.20;99.90
3360;DHT22;1693;49.602;11.046;2023-03-20T21:15:58;8.10;99.90
3360;DHT22;1693;49.602;11.046;2023-03-20T21:18:25;8.10;99.90
3360;DHT22;1693;49.602;11.046;2023-03-20T21:20:52;8.10;99.90
3360;DHT22;1693;49.602;11.046;2023-03-20T21:23:20;8.10;99.90
3360;DHT22;1693;49.602;11.046;2023-03-20T21:25:47;8.10;99.90
3360;DHT22;1693;49.602;11.046;2023-03-20T21:28:15;8.10;99.90
3360;DHT22;1693;49.602;11.046;2023-03-20T21:30:42;8.20;99.90
3360;DHT22;1693;49.602;11.046;2023-03-20T21:33:09;8.30;99.90
3360;DHT22;1693;49.602;11.046;2023-03-20T21:35:36;8.30;99.90
3360;DHT22;1693;49.602;11.046;2023-03-20T21:38:04;8.20;99.90
3360;DHT22;1693;49.602;11.046;2023-03-20T21:40:31;8.20;99.90
3360;DHT22;1693;49.602;11.046;2023-03-20T21:42:58;8.10;99.90
3360;DHT22;1693;49.602;11.046;2023-03-20T21:45:27;8.00;99.90
3360;DHT22;1693;49.602;11.046;2023-03-20T21:47:55;8.00;99.90
3360;DHT22;1693;49.602;11.046;2023-03-20T21:50:22;7.90;99.90
3360;DHT22;1693;49.602;11.046;2023-03-20T21:52:49;7.90;99.90
3360;DHT22;1693;49.602;11.046;2023-03-20T21:55:16;7.80;99.90
3360;DHT22;1693;49.602;11.046;2023-03-20T21:57:43;7.90;99.90
3360;DHT22;1693;49.602;11.046;2023-03-20T22:00:12;7.80;99.90
3360;DHT22;1693;49.602;11.046;2023-03-20T22:02:40;7.60;99.90
3360;DHT22;1693;49.602;11.046;2023-03-20T22:05:08;7.50;99.90
3360;DHT22;1693;49.602;11.046;2023-03-20T22:07:35;7.50;99.90
3360;DHT22;1693;49.602;11.046;2023-03-20T22:10:05;7.60;99.90
3360;DHT22;1693;49.602;11.046;2023-03-20T22:12:32;7.50;99.90
3360;DHT22;1693;49.602;11.046;2023-03-20T22:15:00;7.50;99.90
3360;DHT22;1693;49.602;11.046;2023-03-20T22:17:27;7.40;99.90
3360;DHT22;1693;49.602;11.046;2023-03-20T22:19:55;7.50;99.90
3360;DHT22;1693;49.602;11.046;2023-03-20T22:22:22;7.40;99.90
3360;DHT22;1693;49.602;11.046;2023-03-20T22:24:51;7.40;99.90
3360;DHT22;1693;49.602;11.046;2023-03-20T22:27:18;7.40;99.90
3360;DHT22;1693;49.602;11.046;2023-03-20T22:29:45;7.30;99.90
3360;DHT22;1693;49.602;11.046;2023-03-20T22:32:12;7.40;99.90
3360;DHT22;1693;49.602;11.046;2023-03-20T22:34:39;7.50;99.90
3360;DHT22;1693;49.602;11.046;2023-03-20T22:37:07;7.50;99.90
3360;DHT22;1693;49.602;11.046;2023-03-20T22:39:34;7.60;99.90
3360;DHT22;1693;49.602;11.046;2023-03-20T22:42:01;7.60;99.90
3360;DHT22;1693;49.602;11.046;2023-03-20T22:44:28;7.60;99.90
3360;DHT22;1693;49.602;11.046;2023-03-20T22:46:56;7.70;99.90
3360;DHT22;1693;49.602;11.046;2023-03-20T22:49:23;7.60;99.90
3360;DHT22;1693;49.602;11.046;2023-03-20T22:51:50;7.70;99.90
3360;DHT22;1693;49.602;11.046;2023-03-20T22:54:20;7.70;99.90
3360;DHT22;1693;49.602;11.046;2023-03-20T22:56:47;7.70;99.90
3360;DHT22;1693;49.602;11.046;2023-03-20T22:59:15;7.80;99.90
3360;DHT22;1693;49.602;11.046;2023-03-20T23:01:42;7.80;99.90
3360;DHT22;1693;49.602;11.046;2023-03-20T23:04:09;7.80;99.90
3360;DHT22;1693;49.602;11.046;2023-03-20T23:06:36;8.00;99.90
3360;DHT22;1693;49.602;11.046;2023-03-20T23:09:03;7.90;99.90
3360;DHT22;1693;49.602;11.046;2023-03-20T23:11:32;7.80;99.90
3360;DHT22;1693;49.602;11.046;2023-03-20T23:13:58;7.80;99.90
3360;DHT22;1693;49.602;11.046;2023-03-20T23:16:25;7.80;99.90
3360;DHT22;1693;49.602;11.046;2023-03-20T23:18:52;7.70;99.90
3360;DHT22;1693;49.602;11.046;2023-03-20T23:21:20;7.60;99.90
3360;DHT22;1693;49.602;11.046;2023-03-20T23:23:47;7.50;99.90
3360;DHT22;1693;49.602;11.046;2023-03-20T23:26:15;7.50;99.90
3360;DHT22;1693;49.602;11.046;2023-03-20T23:28:47;7.40;99.90
3360;DHT22;1693;49.602;11.046;2023-03-20T23:31:16;7.40;99.90
3360;DHT22;1693;49.602;11.046;2023-03-20T23:33:46;7.40;99.90
3360;DHT22;1693;49.602;11.046;2023-03-20T23:36:14;7.40;99.90
3360;DHT22;1693;49.602;11.046;2023-03-20T23:38:42;7.40;99.90
3360;DHT22;1693;49.602;11.046;2023-03-20T23:41:09;7.40;99.90
3360;DHT22;1693;49.602;11.046;2023-03-20T23:43:36;7.40;99.90
3360;DHT22;1693;49.602;11.046;2023-03-20T23:46:06;7.40;99.90
3360;DHT22;1693;49.602;11.046;2023-03-20T23:48:34;7.40;99.90
3360;DHT22;1693;49.602;11.046;2023-03-20T23:51:02;7.40;99.90
3360;DHT22;1693;49.602;11.046;2023-03-20T23:53:29;7.40;99.90
3360;DHT22;1693;49.602;11.046;2023-03-20T23:55:56;7.40;99.90
3360;DHT22;1693;49.602;11.046;2023-03-20T23:58:25;7.40;99.90
